sensor_id;sensor_type;location;lat;lon;timestamp;P1;durP1;ratioP1;P2;durP2;ratioP2
51854;SDS011;37895;53.240;6.572;2024-02-14T00:00:11;11.80;;;9.88;;
51854;SDS011;37895;53.240;6.572;2024-02-14T00:02:41;15.38;;;10.43;;
51854;SDS011;37895;53.240;6.572;2024-02-14T00:05:08;12.77;;;9.93;;
51854;SDS011;37895;53.240;6.572;2024-02-14T00:07:35;12.15;;;9.65;;
51854;SDS011;37895;53.240;6.572;2024-02-14T00:10:07;12.32;;;10.13;;
51854;SDS011;37895;53.240;6.572;2024-02-14T00:15:00;12.48;;;11.15;;
51854;SDS011;37895;53.240;6.572;2024-02-14T00:17:30;12.73;;;10.50;;
51854;SDS011;37895;53.240;6.572;2024-02-14T00:19:56;13.18;;;10.75;;
51854;SDS011;37895;53.240;6.572;2024-02-14T00:22:22;12.38;;;11.05;;
51854;SDS011;37895;53.240;6.572;2024-02-14T00:24:48;16.27;;;11.73;;
51854;SDS011;37895;53.240;6.572;2024-02-14T00:27:15;13.95;;;11.45;;
51854;SDS011;37895;53.240;6.572;2024-02-14T00:29:42;14.48;;;11.63;;
51854;SDS011;37895;53.240;6.572;2024-02-14T00:32:10;13.48;;;12.07;;
51854;SDS011;37895;53.240;6.572;2024-02-14T00:34:38;13.75;;;12.35;;
51854;SDS011;37895;53.240;6.572;2024-02-14T00:37:04;13.30;;;12.02;;
51854;SDS011;37895;53.240;6.572;2024-02-14T00:39:29;14.57;;;13.05;;
51854;SDS011;37895;53.240;6.572;2024-02-14T00:41:55;13.65;;;12.35;;
51854;SDS011;37895;53.240;6.572;2024-02-14T00:44:21;14.13;;;12.82;;
51854;SDS011;37895;53.240;6.572;2024-02-14T00:46:47;14.13;;;12.70;;
51854;SDS011;37895;53.240;6.572;2024-02-14T00:49:13;15.93;;;14.20;;
51854;SDS011;37895;53.240;6.572;2024-02-14T00:54:05;14.80;;;13.43;;
51854;SDS011;37895;53.240;6.572;2024-02-14T00:56:31;14.63;;;13.23;;
51854;SDS011;37895;53.240;6.572;2024-02-14T00:58:57;15.80;;;14.30;;
51854;SDS011;37895;53.240;6.572;2024-02-14T01:01:23;14.90;;;13.55;;
51854;SDS011;37895;53.240;6.572;2024-02-14T01:03:48;14.75;;;13.45;;
51854;SDS011;37895;53.240;6.572;2024-02-14T01:06:14;14.95;;;13.45;;
51854;SDS011;37895;53.240;6.572;2024-02-14T01:08:40;14.77;;;13.48;;
51854;SDS011;37895;53.240;6.572;2024-02-14T01:13:32;16.58;;;14.98;;
51854;SDS011;37895;53.240;6.572;2024-02-14T01:15:58;16.70;;;15.05;;
51854;SDS011;37895;53.240;6.572;2024-02-14T01:18:24;15.35;;;13.93;;
51854;SDS011;37895;53.240;6.572;2024-02-14T01:20:49;14.43;;;13.20;;
51854;SDS011;37895;53.240;6.572;2024-02-14T01:23:15;14.65;;;13.25;;
51854;SDS011;37895;53.240;6.572;2024-02-14T01:25:41;14.00;;;12.70;;
51854;SDS011;37895;53.240;6.572;2024-02-14T01:30:33;15.90;;;14.25;;
51854;SDS011;37895;53.240;6.572;2024-02-14T01:33:01;12.77;;;11.77;;
51854;SDS011;37895;53.240;6.572;2024-02-14T01:35:28;14.02;;;12.63;;
51854;SDS011;37895;53.240;6.572;2024-02-14T01:37:54;13.88;;;12.65;;
51854;SDS011;37895;53.240;6.572;2024-02-14T01:40:20;15.40;;;13.80;;
51854;SDS011;37895;53.240;6.572;2024-02-14T01:42:46;13.27;;;12.18;;
51854;SDS011;37895;53.240;6.572;2024-02-14T01:45:11;13.80;;;12.57;;
51854;SDS011;37895;53.240;6.572;2024-02-14T01:47:37;12.60;;;11.40;;
51854;SDS011;37895;53.240;6.572;2024-02-14T01:50:06;12.43;;;11.43;;
51854;SDS011;37895;53.240;6.572;2024-02-14T01:52:34;11.98;;;10.98;;
51854;SDS011;37895;53.240;6.572;2024-02-14T01:55:00;11.98;;;10.98;;
51854;SDS011;37895;53.240;6.572;2024-02-14T01:57:29;12.25;;;11.23;;
51854;SDS011;37895;53.240;6.572;2024-02-14T01:59:55;11.27;;;10.38;;
51854;SDS011;37895;53.240;6.572;2024-02-14T02:02:23;11.70;;;10.60;;
51854;SDS011;37895;53.240;6.572;2024-02-14T02:04:51;11.27;;;10.27;;
51854;SDS011;37895;53.240;6.572;2024-02-14T02:07:17;11.20;;;10.25;;
51854;SDS011;37895;53.240;6.572;2024-02-14T02:09:44;11.10;;;10.20;;
51854;SDS011;37895;53.240;6.572;2024-02-14T02:14:36;9.82;;;9.02;;
51854;SDS011;37895;53.240;6.572;2024-02-14T02:17:02;12.13;;;11.13;;
51854;SDS011;37895;53.240;6.572;2024-02-14T02:19:32;10.90;;;9.90;;
51854;SDS011;37895;53.240;6.572;2024-02-14T02:24:25;10.80;;;9.77;;
51854;SDS011;37895;53.240;6.572;2024-02-14T02:26:51;11.20;;;10.20;;
51854;SDS011;37895;53.240;6.572;2024-02-14T02:29:17;12.20;;;11.20;;
51854;SDS011;37895;53.240;6.572;2024-02-14T02:31:44;11.18;;;10.23;;
51854;SDS011;37895;53.240;6.572;2024-02-14T02:34:10;10.85;;;9.95;;
51854;SDS011;37895;53.240;6.572;2024-02-14T02:36:36;12.48;;;11.48;;
51854;SDS011;37895;53.240;6.572;2024-02-14T02:39:03;11.07;;;10.18;;
51854;SDS011;37895;53.240;6.572;2024-02-14T02:41:29;11.25;;;10.40;;
51854;SDS011;37895;53.240;6.572;2024-02-14T02:43:57;10.68;;;9.77;;
51854;SDS011;37895;53.240;6.572;2024-02-14T02:46:23;10.98;;;10.07;;
51854;SDS011;37895;53.240;6.572;2024-02-14T02:48:50;12.23;;;11.23;;
51854;SDS011;37895;53.240;6.572;2024-02-14T02:51:16;11.05;;;10.15;;
51854;SDS011;37895;53.240;6.572;2024-02-14T02:53:43;11.02;;;10.13;;
51854;SDS011;37895;53.240;6.572;2024-02-14T02:56:08;9.70;;;8.90;;
51854;SDS011;37895;53.240;6.572;2024-02-14T02:58:34;10.10;;;9.20;;
51854;SDS011;37895;53.240;6.572;2024-02-14T03:01:00;10.55;;;9.65;;
51854;SDS011;37895;53.240;6.572;2024-02-14T03:03:25;11.45;;;10.48;;
51854;SDS011;37895;53.240;6.572;2024-02-14T03:05:53;10.07;;;9.25;;
51854;SDS011;37895;53.240;6.572;2024-02-14T03:08:20;10.63;;;9.82;;
51854;SDS011;37895;53.240;6.572;2024-02-14T03:10:46;10.75;;;9.90;;
51854;SDS011;37895;53.240;6.572;2024-02-14T03:13:12;10.40;;;9.60;;
51854;SDS011;37895;53.240;6.572;2024-02-14T03:15:38;9.40;;;8.70;;
51854;SDS011;37895;53.240;6.572;2024-02-14T03:18:04;11.63;;;10.70;;
51854;SDS011;37895;53.240;6.572;2024-02-14T03:20:34;11.30;;;10.30;;
51854;SDS011;37895;53.240;6.572;2024-02-14T03:25:28;9.20;;;8.45;;
51854;SDS011;37895;53.240;6.572;2024-02-14T03:27:54;9.15;;;8.45;;
51854;SDS011;37895;53.240;6.572;2024-02-14T03:30:21;9.90;;;9.05;;
51854;SDS011;37895;53.240;6.572;2024-02-14T03:32:48;9.43;;;8.63;;
51854;SDS011;37895;53.240;6.572;2024-02-14T03:35:14;10.20;;;9.32;;
51854;SDS011;37895;53.240;6.572;2024-02-14T03:40:07;9.77;;;8.97;;
51854;SDS011;37895;53.240;6.572;2024-02-14T03:42:34;10.23;;;9.27;;
51854;SDS011;37895;53.240;6.572;2024-02-14T03:45:00;10.10;;;9.30;;
51854;SDS011;37895;53.240;6.572;2024-02-14T03:47:30;8.75;;;8.05;;
51854;SDS011;37895;53.240;6.572;2024-02-14T03:49:57;9.85;;;9.05;;
51854;SDS011;37895;53.240;6.572;2024-02-14T03:52:23;9.23;;;8.43;;
51854;SDS011;37895;53.240;6.572;2024-02-14T03:54:49;9.40;;;8.60;;
51854;SDS011;37895;53.240;6.572;2024-02-14T03:59:43;9.07;;;8.30;;
51854;SDS011;37895;53.240;6.572;2024-02-14T04:02:09;9.43;;;8.63;;
51854;SDS011;37895;53.240;6.572;2024-02-14T04:04:37;9.23;;;8.35;;
51854;SDS011;37895;53.240;6.572;2024-02-14T04:07:04;9.13;;;8.32;;
51854;SDS011;37895;53.240;6.572;2024-02-14T04:09:32;10.90;;;9.95;;
51854;SDS011;37895;53.240;6.572;2024-02-14T04:11:58;9.23;;;8.52;;
51854;SDS011;37895;53.240;6.572;2024-02-14T04:14:23;10.85;;;9.95;;
51854;SDS011;37895;53.240;6.572;2024-02-14T04:16:50;10.45;;;9.55;;
51854;SDS011;37895;53.240;6.572;2024-02-14T04:19:15;11.02;;;10.13;;
51854;SDS011;37895;53.240;6.572;2024-02-14T04:21:42;10.93;;;9.93;;
51854;SDS011;37895;53.240;6.572;2024-02-14T04:24:08;11.13;;;10.23;;
51854;SDS011;37895;53.240;6.572;2024-02-14T04:26:34;11.40;;;10.40;;
51854;SDS011;37895;53.240;6.572;2024-02-14T04:29:00;13.15;;;11.95;;
51854;SDS011;37895;53.240;6.572;2024-02-14T04:31:26;12.38;;;11.30;;
51854;SDS011;37895;53.240;6.572;2024-02-14T04:33:52;13.07;;;11.90;;
51854;SDS011;37895;53.240;6.572;2024-02-14T04:36:18;13.30;;;12.20;;
51854;SDS011;37895;53.240;6.572;2024-02-14T04:38:45;13.73;;;12.52;;
51854;SDS011;37895;53.240;6.572;2024-02-14T04:41:12;13.48;;;12.27;;
51854;SDS011;37895;53.240;6.572;2024-02-14T04:43:38;13.98;;;12.68;;
51854;SDS011;37895;53.240;6.572;2024-02-14T04:46:03;14.15;;;12.95;;
51854;SDS011;37895;53.240;6.572;2024-02-14T04:48:32;13.20;;;12.10;;
51854;SDS011;37895;53.240;6.572;2024-02-14T04:53:23;14.40;;;13.00;;
51854;SDS011;37895;53.240;6.572;2024-02-14T04:55:49;15.50;;;13.98;;
51854;SDS011;37895;53.240;6.572;2024-02-14T04:58:15;14.20;;;12.90;;
51854;SDS011;37895;53.240;6.572;2024-02-14T05:00:41;12.73;;;11.68;;
51854;SDS011;37895;53.240;6.572;2024-02-14T05:03:07;13.32;;;12.10;;
51854;SDS011;37895;53.240;6.572;2024-02-14T05:05:33;14.60;;;13.13;;
51854;SDS011;37895;53.240;6.572;2024-02-14T05:08:01;12.70;;;11.60;;
51854;SDS011;37895;53.240;6.572;2024-02-14T05:12:53;13.27;;;12.07;;
51854;SDS011;37895;53.240;6.572;2024-02-14T05:15:19;13.60;;;12.30;;
51854;SDS011;37895;53.240;6.572;2024-02-14T05:17:45;15.27;;;13.88;;
51854;SDS011;37895;53.240;6.572;2024-02-14T05:20:11;13.98;;;12.68;;
51854;SDS011;37895;53.240;6.572;2024-02-14T05:22:37;14.43;;;12.93;;
51854;SDS011;37895;53.240;6.572;2024-02-14T05:25:04;15.45;;;13.88;;
51854;SDS011;37895;53.240;6.572;2024-02-14T05:27:30;15.30;;;13.80;;
51854;SDS011;37895;53.240;6.572;2024-02-14T05:29:56;14.48;;;13.05;;
51854;SDS011;37895;53.240;6.572;2024-02-14T05:32:22;13.65;;;12.25;;
51854;SDS011;37895;53.240;6.572;2024-02-14T05:34:48;14.80;;;13.30;;
51854;SDS011;37895;53.240;6.572;2024-02-14T05:37:15;15.45;;;13.63;;
51854;SDS011;37895;53.240;6.572;2024-02-14T05:39:41;15.02;;;13.30;;
51854;SDS011;37895;53.240;6.572;2024-02-14T05:42:07;14.15;;;12.70;;
51854;SDS011;37895;53.240;6.572;2024-02-14T05:44:32;13.63;;;12.23;;
51854;SDS011;37895;53.240;6.572;2024-02-14T05:46:58;14.60;;;13.07;;
51854;SDS011;37895;53.240;6.572;2024-02-14T05:49:23;14.90;;;13.40;;
51854;SDS011;37895;53.240;6.572;2024-02-14T05:51:49;14.35;;;12.25;;
51854;SDS011;37895;53.240;6.572;2024-02-14T05:54:17;12.70;;;11.40;;
51854;SDS011;37895;53.240;6.572;2024-02-14T05:56:43;13.38;;;11.68;;
51854;SDS011;37895;53.240;6.572;2024-02-14T05:59:09;11.85;;;10.55;;
51854;SDS011;37895;53.240;6.572;2024-02-14T06:04:00;12.15;;;10.95;;
51854;SDS011;37895;53.240;6.572;2024-02-14T06:06:26;11.02;;;9.90;;
51854;SDS011;37895;53.240;6.572;2024-02-14T06:08:52;11.43;;;10.27;;
51854;SDS011;37895;53.240;6.572;2024-02-14T06:11:17;13.00;;;11.68;;
51854;SDS011;37895;53.240;6.572;2024-02-14T06:13:46;9.93;;;8.93;;
51854;SDS011;37895;53.240;6.572;2024-02-14T06:16:12;11.52;;;10.00;;
51854;SDS011;37895;53.240;6.572;2024-02-14T06:18:38;10.82;;;9.82;;
51854;SDS011;37895;53.240;6.572;2024-02-14T06:21:05;12.35;;;9.60;;
51854;SDS011;37895;53.240;6.572;2024-02-14T06:23:31;13.48;;;9.68;;
51854;SDS011;37895;53.240;6.572;2024-02-14T06:25:57;10.48;;;9.38;;
51854;SDS011;37895;53.240;6.572;2024-02-14T06:28:23;10.82;;;9.55;;
51854;SDS011;37895;53.240;6.572;2024-02-14T06:30:48;12.18;;;10.20;;
51854;SDS011;37895;53.240;6.572;2024-02-14T06:33:14;13.68;;;11.43;;
51854;SDS011;37895;53.240;6.572;2024-02-14T06:35:40;14.80;;;11.85;;
51854;SDS011;37895;53.240;6.572;2024-02-14T06:38:05;18.10;;;11.70;;
51854;SDS011;37895;53.240;6.572;2024-02-14T06:40:31;22.42;;;12.70;;
51854;SDS011;37895;53.240;6.572;2024-02-14T06:42:57;23.38;;;13.95;;
51854;SDS011;37895;53.240;6.572;2024-02-14T06:45:25;28.48;;;15.25;;
51854;SDS011;37895;53.240;6.572;2024-02-14T06:50:16;41.67;;;16.42;;
51854;SDS011;37895;53.240;6.572;2024-02-14T06:52:42;40.55;;;16.35;;
51854;SDS011;37895;53.240;6.572;2024-02-14T06:55:08;45.22;;;17.50;;
51854;SDS011;37895;53.240;6.572;2024-02-14T06:57:33;50.03;;;18.90;;
51854;SDS011;37895;53.240;6.572;2024-02-14T06:59:59;53.75;;;18.27;;
51854;SDS011;37895;53.240;6.572;2024-02-14T07:02:25;45.38;;;16.48;;
51854;SDS011;37895;53.240;6.572;2024-02-14T07:04:53;50.58;;;16.10;;
51854;SDS011;37895;53.240;6.572;2024-02-14T07:07:19;47.25;;;15.82;;
51854;SDS011;37895;53.240;6.572;2024-02-14T07:09:45;50.42;;;16.25;;
51854;SDS011;37895;53.240;6.572;2024-02-14T07:12:11;45.15;;;15.93;;
51854;SDS011;37895;53.240;6.572;2024-02-14T07:14:36;46.88;;;16.10;;
51854;SDS011;37895;53.240;6.572;2024-02-14T07:17:02;43.42;;;15.07;;
51854;SDS011;37895;53.240;6.572;2024-02-14T07:19:28;47.40;;;16.25;;
51854;SDS011;37895;53.240;6.572;2024-02-14T07:21:53;40.58;;;14.73;;
51854;SDS011;37895;53.240;6.572;2024-02-14T07:24:19;43.55;;;14.98;;
51854;SDS011;37895;53.240;6.572;2024-02-14T07:26:45;42.00;;;15.27;;
51854;SDS011;37895;53.240;6.572;2024-02-14T07:29:11;54.38;;;16.15;;
51854;SDS011;37895;53.240;6.572;2024-02-14T07:31:36;52.33;;;16.10;;
51854;SDS011;37895;53.240;6.572;2024-02-14T07:34:02;56.28;;;15.57;;
51854;SDS011;37895;53.240;6.572;2024-02-14T07:36:28;54.20;;;15.52;;
51854;SDS011;37895;53.240;6.572;2024-02-14T07:38:54;57.85;;;15.85;;
51854;SDS011;37895;53.240;6.572;2024-02-14T07:41:20;55.25;;;14.05;;
51854;SDS011;37895;53.240;6.572;2024-02-14T07:43:46;48.70;;;14.80;;
51854;SDS011;37895;53.240;6.572;2024-02-14T07:46:16;58.17;;;14.60;;
51854;SDS011;37895;53.240;6.572;2024-02-14T07:48:43;53.33;;;14.10;;
51854;SDS011;37895;53.240;6.572;2024-02-14T07:51:09;51.50;;;14.10;;
51854;SDS011;37895;53.240;6.572;2024-02-14T07:53:34;54.45;;;14.05;;
51854;SDS011;37895;53.240;6.572;2024-02-14T07:56:00;47.83;;;13.60;;
51854;SDS011;37895;53.240;6.572;2024-02-14T07:58:26;45.28;;;12.55;;
51854;SDS011;37895;53.240;6.572;2024-02-14T08:00:51;56.35;;;14.63;;
51854;SDS011;37895;53.240;6.572;2024-02-14T08:03:17;38.40;;;12.68;;
51854;SDS011;37895;53.240;6.572;2024-02-14T08:05:43;51.70;;;13.88;;
51854;SDS011;37895;53.240;6.572;2024-02-14T08:08:08;46.20;;;13.52;;
51854;SDS011;37895;53.240;6.572;2024-02-14T08:10:34;50.40;;;14.27;;
51854;SDS011;37895;53.240;6.572;2024-02-14T08:13:00;58.20;;;16.08;;
51854;SDS011;37895;53.240;6.572;2024-02-14T08:15:25;56.92;;;15.65;;
51854;SDS011;37895;53.240;6.572;2024-02-14T08:17:51;46.00;;;13.55;;
51854;SDS011;37895;53.240;6.572;2024-02-14T08:20:20;57.25;;;14.15;;
51854;SDS011;37895;53.240;6.572;2024-02-14T08:22:46;59.15;;;15.05;;
51854;SDS011;37895;53.240;6.572;2024-02-14T08:25:12;48.60;;;13.90;;
51854;SDS011;37895;53.240;6.572;2024-02-14T08:27:37;54.95;;;14.60;;
51854;SDS011;37895;53.240;6.572;2024-02-14T08:30:03;39.65;;;12.68;;
51854;SDS011;37895;53.240;6.572;2024-02-14T08:32:31;43.75;;;13.25;;
51854;SDS011;37895;53.240;6.572;2024-02-14T08:34:58;44.25;;;12.95;;
51854;SDS011;37895;53.240;6.572;2024-02-14T08:37:23;37.25;;;12.55;;
51854;SDS011;37895;53.240;6.572;2024-02-14T08:39:50;46.78;;;13.88;;
51854;SDS011;37895;53.240;6.572;2024-02-14T08:42:15;46.05;;;15.15;;
51854;SDS011;37895;53.240;6.572;2024-02-14T08:44:41;53.25;;;15.00;;
51854;SDS011;37895;53.240;6.572;2024-02-14T08:47:07;52.25;;;14.65;;
51854;SDS011;37895;53.240;6.572;2024-02-14T08:49:32;43.53;;;14.50;;
51854;SDS011;37895;53.240;6.572;2024-02-14T08:51:58;47.78;;;13.77;;
51854;SDS011;37895;53.240;6.572;2024-02-14T08:54:27;43.50;;;14.48;;
51854;SDS011;37895;53.240;6.572;2024-02-14T08:56:53;44.28;;;15.05;;
51854;SDS011;37895;53.240;6.572;2024-02-14T08:59:21;42.55;;;14.02;;
51854;SDS011;37895;53.240;6.572;2024-02-14T09:01:46;51.85;;;14.25;;
51854;SDS011;37895;53.240;6.572;2024-02-14T09:06:38;36.05;;;12.57;;
51854;SDS011;37895;53.240;6.572;2024-02-14T09:09:05;42.40;;;13.55;;
51854;SDS011;37895;53.240;6.572;2024-02-14T09:13:57;45.90;;;15.75;;
51854;SDS011;37895;53.240;6.572;2024-02-14T09:16:29;41.53;;;13.68;;
51854;SDS011;37895;53.240;6.572;2024-02-14T09:18:55;32.80;;;13.40;;
51854;SDS011;37895;53.240;6.572;2024-02-14T09:21:21;36.10;;;14.40;;
51854;SDS011;37895;53.240;6.572;2024-02-14T09:23:47;35.17;;;14.68;;
51854;SDS011;37895;53.240;6.572;2024-02-14T09:26:13;39.05;;;16.40;;
51854;SDS011;37895;53.240;6.572;2024-02-14T09:28:42;45.25;;;18.55;;
51854;SDS011;37895;53.240;6.572;2024-02-14T09:31:08;39.55;;;17.90;;
51854;SDS011;37895;53.240;6.572;2024-02-14T09:33:36;37.75;;;20.23;;
51854;SDS011;37895;53.240;6.572;2024-02-14T09:36:03;42.97;;;20.85;;
51854;SDS011;37895;53.240;6.572;2024-02-14T09:38:29;43.00;;;21.02;;
51854;SDS011;37895;53.240;6.572;2024-02-14T09:40:58;44.88;;;22.40;;
51854;SDS011;37895;53.240;6.572;2024-02-14T09:43:34;41.17;;;21.50;;
51854;SDS011;37895;53.240;6.572;2024-02-14T09:46:03;42.58;;;19.90;;
51854;SDS011;37895;53.240;6.572;2024-02-14T09:48:29;46.25;;;21.48;;
51854;SDS011;37895;53.240;6.572;2024-02-14T09:50:56;39.70;;;19.65;;
51854;SDS011;37895;53.240;6.572;2024-02-14T09:53:22;46.50;;;20.13;;
51854;SDS011;37895;53.240;6.572;2024-02-14T09:55:49;41.75;;;20.63;;
51854;SDS011;37895;53.240;6.572;2024-02-14T09:58:15;41.45;;;20.60;;
51854;SDS011;37895;53.240;6.572;2024-02-14T10:00:42;34.78;;;17.40;;
51854;SDS011;37895;53.240;6.572;2024-02-14T10:03:08;35.78;;;16.95;;
51854;SDS011;37895;53.240;6.572;2024-02-14T10:08:01;38.55;;;17.15;;
51854;SDS011;37895;53.240;6.572;2024-02-14T10:10:26;27.88;;;16.13;;
51854;SDS011;37895;53.240;6.572;2024-02-14T10:15:22;31.10;;;16.70;;
51854;SDS011;37895;53.240;6.572;2024-02-14T10:17:47;27.83;;;15.27;;
51854;SDS011;37895;53.240;6.572;2024-02-14T10:20:17;34.65;;;15.15;;
51854;SDS011;37895;53.240;6.572;2024-02-14T10:22:43;26.52;;;15.07;;
51854;SDS011;37895;53.240;6.572;2024-02-14T10:27:39;32.15;;;13.60;;
51854;SDS011;37895;53.240;6.572;2024-02-14T10:30:05;26.00;;;14.10;;
51854;SDS011;37895;53.240;6.572;2024-02-14T10:32:35;25.85;;;13.60;;
51854;SDS011;37895;53.240;6.572;2024-02-14T10:35:05;25.08;;;13.45;;
51854;SDS011;37895;53.240;6.572;2024-02-14T10:37:33;19.25;;;12.20;;
51854;SDS011;37895;53.240;6.572;2024-02-14T10:40:01;21.33;;;11.95;;
51854;SDS011;37895;53.240;6.572;2024-02-14T10:42:28;18.52;;;11.63;;
51854;SDS011;37895;53.240;6.572;2024-02-14T10:44:54;18.50;;;11.82;;
51854;SDS011;37895;53.240;6.572;2024-02-14T10:47:20;18.33;;;11.75;;
51854;SDS011;37895;53.240;6.572;2024-02-14T10:49:49;21.33;;;12.88;;
51854;SDS011;37895;53.240;6.572;2024-02-14T10:52:16;21.05;;;13.20;;
51854;SDS011;37895;53.240;6.572;2024-02-14T10:54:43;19.20;;;13.02;;
51854;SDS011;37895;53.240;6.572;2024-02-14T10:57:21;17.30;;;12.00;;
51854;SDS011;37895;53.240;6.572;2024-02-14T10:59:49;16.80;;;12.25;;
51854;SDS011;37895;53.240;6.572;2024-02-14T11:02:17;17.08;;;9.80;;
51854;SDS011;37895;53.240;6.572;2024-02-14T11:04:45;11.38;;;9.48;;
51854;SDS011;37895;53.240;6.572;2024-02-14T11:07:11;15.30;;;8.88;;
51854;SDS011;37895;53.240;6.572;2024-02-14T11:09:38;9.48;;;7.53;;
51854;SDS011;37895;53.240;6.572;2024-02-14T11:12:08;9.00;;;7.75;;
51854;SDS011;37895;53.240;6.572;2024-02-14T11:14:35;11.05;;;8.35;;
51854;SDS011;37895;53.240;6.572;2024-02-14T11:17:02;9.82;;;7.82;;
51854;SDS011;37895;53.240;6.572;2024-02-14T11:19:31;10.20;;;8.20;;
51854;SDS011;37895;53.240;6.572;2024-02-14T11:22:12;10.43;;;8.68;;
51854;SDS011;37895;53.240;6.572;2024-02-14T11:24:46;14.48;;;9.30;;
51854;SDS011;37895;53.240;6.572;2024-02-14T11:27:13;11.93;;;9.27;;
51854;SDS011;37895;53.240;6.572;2024-02-14T11:29:40;9.93;;;8.73;;
51854;SDS011;37895;53.240;6.572;2024-02-14T11:32:15;15.60;;;10.20;;
51854;SDS011;37895;53.240;6.572;2024-02-14T11:34:43;16.52;;;11.75;;
51854;SDS011;37895;53.240;6.572;2024-02-14T11:37:09;12.20;;;10.68;;
51854;SDS011;37895;53.240;6.572;2024-02-14T11:39:34;11.85;;;10.27;;
51854;SDS011;37895;53.240;6.572;2024-02-14T11:42:00;15.07;;;10.98;;
51854;SDS011;37895;53.240;6.572;2024-02-14T11:46:52;12.57;;;10.45;;
51854;SDS011;37895;53.240;6.572;2024-02-14T11:49:18;14.10;;;10.93;;
51854;SDS011;37895;53.240;6.572;2024-02-14T11:51:46;12.45;;;9.35;;
51854;SDS011;37895;53.240;6.572;2024-02-14T11:54:12;11.93;;;9.38;;
51854;SDS011;37895;53.240;6.572;2024-02-14T11:56:38;11.05;;;9.48;;
51854;SDS011;37895;53.240;6.572;2024-02-14T11:59:07;10.93;;;9.27;;
51854;SDS011;37895;53.240;6.572;2024-02-14T12:01:35;12.13;;;8.10;;
51854;SDS011;37895;53.240;6.572;2024-02-14T12:04:02;11.77;;;9.68;;
51854;SDS011;37895;53.240;6.572;2024-02-14T12:06:38;7.93;;;7.10;;
51854;SDS011;37895;53.240;6.572;2024-02-14T12:09:06;8.18;;;6.82;;
51854;SDS011;37895;53.240;6.572;2024-02-14T12:11:35;9.05;;;6.82;;
51854;SDS011;37895;53.240;6.572;2024-02-14T12:14:07;6.53;;;5.90;;
51854;SDS011;37895;53.240;6.572;2024-02-14T12:16:36;6.65;;;6.00;;
51854;SDS011;37895;53.240;6.572;2024-02-14T12:19:05;6.95;;;6.28;;
51854;SDS011;37895;53.240;6.572;2024-02-14T12:21:36;6.68;;;5.95;;
51854;SDS011;37895;53.240;6.572;2024-02-14T12:24:06;7.32;;;6.50;;
51854;SDS011;37895;53.240;6.572;2024-02-14T12:26:37;8.02;;;7.18;;
51854;SDS011;37895;53.240;6.572;2024-02-14T12:29:03;6.38;;;5.75;;
51854;SDS011;37895;53.240;6.572;2024-02-14T12:31:29;6.15;;;5.57;;
51854;SDS011;37895;53.240;6.572;2024-02-14T12:33:58;6.10;;;5.50;;
51854;SDS011;37895;53.240;6.572;2024-02-14T12:36:27;6.53;;;5.93;;
51854;SDS011;37895;53.240;6.572;2024-02-14T12:38:59;7.93;;;7.15;;
51854;SDS011;37895;53.240;6.572;2024-02-14T12:41:27;7.15;;;6.53;;
51854;SDS011;37895;53.240;6.572;2024-02-14T12:43:54;7.35;;;6.65;;
51854;SDS011;37895;53.240;6.572;2024-02-14T12:48:46;7.53;;;6.57;;
51854;SDS011;37895;53.240;6.572;2024-02-14T12:51:13;7.90;;;7.05;;
51854;SDS011;37895;53.240;6.572;2024-02-14T12:56:04;9.13;;;8.32;;
51854;SDS011;37895;53.240;6.572;2024-02-14T12:58:31;10.13;;;9.23;;
51854;SDS011;37895;53.240;6.572;2024-02-14T13:00:57;9.02;;;8.18;;
51854;SDS011;37895;53.240;6.572;2024-02-14T13:03:23;11.00;;;9.90;;
51854;SDS011;37895;53.240;6.572;2024-02-14T13:05:49;9.38;;;8.07;;
51854;SDS011;37895;53.240;6.572;2024-02-14T13:08:18;10.00;;;9.07;;
51854;SDS011;37895;53.240;6.572;2024-02-14T13:10:43;9.10;;;8.40;;
51854;SDS011;37895;53.240;6.572;2024-02-14T13:13:09;9.82;;;8.73;;
51854;SDS011;37895;53.240;6.572;2024-02-14T13:15:35;8.50;;;7.57;;
51854;SDS011;37895;53.240;6.572;2024-02-14T13:20:27;8.20;;;7.50;;
51854;SDS011;37895;53.240;6.572;2024-02-14T13:22:54;8.77;;;7.63;;
51854;SDS011;37895;53.240;6.572;2024-02-14T13:25:19;8.98;;;8.18;;
51854;SDS011;37895;53.240;6.572;2024-02-14T13:27:45;8.63;;;7.93;;
51854;SDS011;37895;53.240;6.572;2024-02-14T13:30:11;9.50;;;8.63;;
51854;SDS011;37895;53.240;6.572;2024-02-14T13:32:37;8.77;;;7.97;;
51854;SDS011;37895;53.240;6.572;2024-02-14T13:35:03;11.63;;;10.65;;
51854;SDS011;37895;53.240;6.572;2024-02-14T13:37:30;10.50;;;9.50;;
51854;SDS011;37895;53.240;6.572;2024-02-14T13:42:22;10.68;;;9.60;;
51854;SDS011;37895;53.240;6.572;2024-02-14T13:44:48;10.77;;;9.82;;
51854;SDS011;37895;53.240;6.572;2024-02-14T13:47:14;10.43;;;9.52;;
51854;SDS011;37895;53.240;6.572;2024-02-14T13:49:43;11.80;;;10.55;;
51854;SDS011;37895;53.240;6.572;2024-02-14T13:52:09;19.25;;;17.38;;
51854;SDS011;37895;53.240;6.572;2024-02-14T13:54:35;13.23;;;12.13;;
51854;SDS011;37895;53.240;6.572;2024-02-14T13:57:01;12.93;;;10.98;;
51854;SDS011;37895;53.240;6.572;2024-02-14T13:59:27;12.55;;;11.45;;
51854;SDS011;37895;53.240;6.572;2024-02-14T14:01:53;11.65;;;10.18;;
51854;SDS011;37895;53.240;6.572;2024-02-14T14:04:19;12.43;;;11.23;;
51854;SDS011;37895;53.240;6.572;2024-02-14T14:06:45;13.10;;;11.80;;
51854;SDS011;37895;53.240;6.572;2024-02-14T14:09:12;14.13;;;12.70;;
51854;SDS011;37895;53.240;6.572;2024-02-14T14:11:38;13.55;;;12.27;;
51854;SDS011;37895;53.240;6.572;2024-02-14T14:14:04;13.90;;;12.57;;
51854;SDS011;37895;53.240;6.572;2024-02-14T14:21:23;14.07;;;12.73;;
51854;SDS011;37895;53.240;6.572;2024-02-14T14:23:49;15.63;;;14.20;;
51854;SDS011;37895;53.240;6.572;2024-02-14T14:26:15;16.05;;;14.60;;
51854;SDS011;37895;53.240;6.572;2024-02-14T14:28:40;17.65;;;16.00;;
51854;SDS011;37895;53.240;6.572;2024-02-14T14:31:07;19.20;;;17.45;;
51854;SDS011;37895;53.240;6.572;2024-02-14T14:33:36;26.40;;;23.98;;
51854;SDS011;37895;53.240;6.572;2024-02-14T14:36:03;22.38;;;20.17;;
51854;SDS011;37895;53.240;6.572;2024-02-14T14:38:29;24.83;;;22.52;;
51854;SDS011;37895;53.240;6.572;2024-02-14T14:40:55;23.77;;;21.48;;
51854;SDS011;37895;53.240;6.572;2024-02-14T14:43:24;23.02;;;20.92;;
51854;SDS011;37895;53.240;6.572;2024-02-14T14:45:50;24.02;;;21.85;;
51854;SDS011;37895;53.240;6.572;2024-02-14T14:48:15;25.13;;;22.80;;
51854;SDS011;37895;53.240;6.572;2024-02-14T14:50:42;26.95;;;24.45;;
51854;SDS011;37895;53.240;6.572;2024-02-14T14:53:08;24.02;;;21.83;;
51854;SDS011;37895;53.240;6.572;2024-02-14T14:58:23;25.65;;;23.45;;
51854;SDS011;37895;53.240;6.572;2024-02-14T15:00:56;28.08;;;25.58;;
51854;SDS011;37895;53.240;6.572;2024-02-14T15:03:25;22.88;;;20.98;;
51854;SDS011;37895;53.240;6.572;2024-02-14T15:05:51;20.90;;;18.98;;
51854;SDS011;37895;53.240;6.572;2024-02-14T15:08:18;20.48;;;18.77;;
51854;SDS011;37895;53.240;6.572;2024-02-14T15:10:50;22.80;;;20.75;;
51854;SDS011;37895;53.240;6.572;2024-02-14T15:13:17;20.45;;;18.65;;
51854;SDS011;37895;53.240;6.572;2024-02-14T15:15:45;18.15;;;16.65;;
51854;SDS011;37895;53.240;6.572;2024-02-14T15:18:11;16.85;;;15.55;;
51854;SDS011;37895;53.240;6.572;2024-02-14T15:20:36;18.00;;;16.52;;
51854;SDS011;37895;53.240;6.572;2024-02-14T15:23:03;18.35;;;16.75;;
51854;SDS011;37895;53.240;6.572;2024-02-14T15:27:55;14.02;;;12.93;;